createdAt,value
2022-08-23T00:03:05.825Z,62.40
2022-08-23T00:06:13.142Z,62.50
2022-08-23T00:09:18.358Z,62.50
2022-08-23T00:12:24.965Z,62.60
2022-08-23T00:15:30.151Z,62.70
2022-08-23T00:18:37.701Z,62.80
2022-08-23T00:21:43.724Z,63.00
2022-08-23T00:24:49.673Z,63.00
2022-08-23T00:27:54.763Z,63.00
2022-08-23T00:30:59.799Z,63.10
2022-08-23T00:34:07.356Z,63.20
2022-08-23T00:37:13.701Z,63.40
2022-08-23T00:40:20.691Z,63.40
2022-08-23T00:43:43.845Z,63.60
2022-08-23T00:47:05.495Z,63.70
2022-08-23T00:50:24.479Z,63.70
2022-08-23T00:53:34.004Z,63.90
2022-08-23T00:56:39.838Z,63.80
2022-08-23T00:59:44.923Z,63.80
2022-08-23T01:02:52.881Z,63.90
2022-08-23T01:06:07.702Z,64.10
2022-08-23T01:09:16.314Z,64.30
2022-08-23T01:12:32.354Z,64.20
2022-08-23T01:15:42.554Z,64.30
2022-08-23T01:18:48.895Z,64.40
2022-08-23T01:22:02.519Z,64.40
2022-08-23T01:25:14.030Z,65.30
2022-08-23T01:28:21.243Z,64.60
2022-08-23T01:31:27.421Z,64.60
2022-08-23T01:34:32.761Z,64.70
2022-08-23T01:37:42.340Z,64.70
2022-08-23T01:40:50.346Z,64.80
2022-08-23T01:43:55.328Z,64.90
2022-08-23T01:47:03.371Z,64.90
2022-08-23T01:50:09.795Z,65.00
2022-08-23T01:53:15.505Z,65.10
2022-08-23T01:56:38.869Z,65.10
2022-08-23T01:59:46.957Z,65.20
2022-08-23T02:02:52.485Z,65.20
2022-08-23T02:05:57.654Z,65.30
2022-08-23T02:09:05.939Z,65.30
2022-08-23T02:12:25.395Z,65.40
2022-08-23T02:15:36.717Z,65.50
2022-08-23T02:18:42.029Z,65.30
2022-08-23T02:21:48.886Z,65.20
2022-08-23T02:24:54.566Z,65.50
2022-08-23T02:28:04.391Z,65.50
2022-08-23T02:31:09.913Z,65.70
2022-08-23T02:34:18.274Z,65.70
2022-08-23T02:37:23.250Z,65.80
2022-08-23T02:40:28.799Z,65.90
2022-08-23T02:43:40.926Z,66.00
2022-08-23T02:46:47.033Z,66.10
2022-08-23T02:49:53.714Z,66.10
2022-08-23T02:53:00.361Z,66.10
2022-08-23T02:56:06.781Z,66.30
2022-08-23T02:59:29.122Z,66.30
2022-08-23T03:02:34.181Z,66.40
2022-08-23T03:05:39.217Z,66.50
2022-08-23T03:08:45.296Z,66.40
2022-08-23T03:11:51.872Z,66.50
2022-08-23T03:15:01.309Z,67.10
2022-08-23T03:18:06.949Z,66.60
2022-08-23T03:21:13.090Z,66.60
2022-08-23T03:24:18.071Z,66.70
2022-08-23T03:27:23.647Z,66.60
2022-08-23T03:30:32.261Z,66.70
2022-08-23T03:33:38.325Z,66.80
2022-08-23T03:36:43.314Z,66.90
2022-08-23T03:39:48.766Z,66.90
2022-08-23T03:42:54.447Z,66.90
2022-08-23T03:46:04.967Z,66.90
2022-08-23T03:49:10.294Z,67.00
2022-08-23T03:52:25.485Z,67.10
2022-08-23T03:55:30.646Z,67.00
2022-08-23T03:58:38.081Z,67.10
2022-08-23T04:01:45.958Z,67.10
2022-08-23T04:04:51.054Z,67.30
2022-08-23T04:08:21.074Z,67.30
2022-08-23T04:11:39.115Z,67.20
2022-08-23T04:14:45.650Z,67.30
2022-08-23T04:17:54.920Z,67.40
2022-08-23T04:21:03.885Z,67.50
2022-08-23T04:24:09.458Z,67.40
2022-08-23T04:27:15.123Z,67.60
2022-08-23T04:30:21.817Z,67.60
2022-08-23T04:33:31.834Z,67.70
2022-08-23T04:36:40.438Z,67.70
2022-08-23T04:40:02.332Z,67.70
2022-08-23T04:43:15.977Z,67.70
2022-08-23T04:46:21.227Z,67.80
2022-08-23T04:49:30.187Z,67.90
2022-08-23T04:52:35.752Z,67.90
2022-08-23T04:55:41.915Z,67.90
2022-08-23T04:58:47.397Z,68.00
2022-08-23T05:01:53.472Z,68.00
2022-08-23T05:05:01.138Z,68.10
2022-08-23T05:08:06.935Z,68.10
2022-08-23T05:11:13.659Z,68.10
2022-08-23T05:14:19.664Z,68.20
2022-08-23T05:17:24.877Z,68.20
2022-08-23T05:20:32.583Z,68.30
2022-08-23T05:23:38.095Z,68.40
2022-08-23T05:26:51.082Z,68.40
2022-08-23T05:29:56.218Z,68.40
2022-08-23T05:33:01.303Z,69.10
2022-08-23T05:36:12.209Z,68.50
2022-08-23T05:39:17.282Z,68.60
2022-08-23T05:42:38.672Z,68.60
2022-08-23T05:45:43.679Z,68.70
2022-08-23T05:48:51.131Z,68.70
2022-08-23T05:52:00.993Z,68.80
2022-08-23T05:55:10.786Z,68.80
2022-08-23T05:58:18.343Z,68.80
2022-08-23T06:01:25.218Z,68.90
2022-08-23T06:04:33.939Z,69.10
2022-08-23T06:07:42.017Z,69.10
2022-08-23T06:10:47.021Z,69.20
2022-08-23T06:14:05.271Z,69.20
2022-08-23T06:17:10.681Z,69.20
2022-08-23T06:20:16.169Z,69.30
2022-08-23T06:23:42.488Z,69.40
2022-08-23T06:26:48.225Z,69.40
2022-08-23T06:29:53.241Z,69.40
2022-08-23T06:33:10.015Z,69.40
2022-08-23T06:36:23.903Z,69.40
2022-08-23T06:39:46.071Z,69.30
2022-08-23T06:43:04.805Z,69.20
2022-08-23T06:46:31.473Z,69.10
2022-08-23T06:49:37.014Z,69.10
2022-08-23T06:52:41.971Z,69.10
2022-08-23T06:56:03.603Z,68.80
2022-08-23T06:59:19.666Z,68.70
2022-08-23T07:02:50.115Z,68.60
2022-08-23T07:06:14.034Z,68.40
2022-08-23T07:09:19.637Z,68.20
2022-08-23T07:12:27.235Z,68.30
2022-08-23T07:15:32.182Z,67.80
2022-08-23T07:18:38.416Z,67.50
2022-08-23T07:21:44.789Z,67.40
2022-08-23T07:24:53.702Z,67.20
2022-08-23T07:28:03.123Z,67.10
2022-08-23T07:31:14.671Z,66.80
2022-08-23T07:34:21.005Z,66.50
2022-08-23T07:37:26.400Z,66.40
2022-08-23T07:40:34.406Z,66.10
2022-08-23T07:43:47.269Z,65.90
2022-08-23T07:46:52.777Z,65.80
2022-08-23T07:49:57.769Z,65.70
2022-08-23T07:53:04.092Z,65.40
2022-08-23T07:56:10.565Z,65.20
2022-08-23T07:59:37.102Z,65.10
2022-08-23T08:03:05.291Z,65.50
2022-08-23T08:06:28.492Z,64.80
2022-08-23T08:09:33.845Z,64.50
2022-08-23T08:12:39.176Z,64.40
2022-08-23T08:15:59.119Z,64.10
2022-08-23T08:19:10.082Z,64.00
2022-08-23T08:22:33.546Z,63.70
2022-08-23T08:26:10.565Z,63.60
2022-08-23T08:29:16.971Z,63.50
2022-08-23T08:32:25.863Z,63.20
2022-08-23T08:35:31.033Z,62.90
2022-08-23T08:38:36.778Z,62.80
2022-08-23T08:42:04.155Z,62.60
2022-08-23T08:45:14.560Z,62.30
2022-08-23T08:48:26.636Z,62.10
2022-08-23T08:51:45.005Z,61.80
2022-08-23T08:54:55.674Z,61.60
2022-08-23T08:58:01.632Z,61.50
2022-08-23T09:01:06.738Z,61.20
2022-08-23T09:04:14.658Z,60.90
2022-08-23T09:07:31.824Z,60.40
2022-08-23T09:10:59.153Z,60.00
2022-08-23T09:14:31.907Z,59.80
2022-08-23T09:17:44.013Z,59.40
2022-08-23T09:20:58.161Z,59.50
2022-08-23T09:24:03.206Z,59.10
2022-08-23T09:27:21.537Z,58.90
2022-08-23T09:30:48.619Z,58.70
2022-08-23T09:33:53.854Z,58.00
2022-08-23T09:37:22.305Z,58.20
2022-08-23T09:40:33.173Z,57.70
2022-08-23T09:43:48.352Z,58.00
2022-08-23T09:47:08.962Z,57.30
2022-08-23T09:50:26.794Z,56.70
2022-08-23T09:53:34.699Z,56.70
2022-08-23T09:56:54.468Z,56.30
2022-08-23T10:00:05.967Z,56.00
2022-08-23T10:03:28.146Z,55.70
2022-08-23T10:06:48.519Z,55.10
2022-08-23T10:09:56.976Z,55.30
2022-08-23T10:13:02.789Z,54.80
2022-08-23T10:16:15.276Z,54.70
2022-08-23T10:19:41.277Z,54.30
2022-08-23T10:22:48.757Z,53.80
2022-08-23T10:26:06.430Z,53.70
2022-08-23T10:29:34.743Z,53.30
2022-08-23T10:32:54.178Z,52.90
2022-08-23T10:36:09.347Z,52.60
2022-08-23T10:39:18.899Z,52.40
2022-08-23T10:42:35.442Z,52.30
2022-08-23T10:45:44.558Z,51.80
2022-08-23T10:49:04.115Z,51.70
2022-08-23T10:52:18.029Z,51.50
2022-08-23T10:55:44.332Z,51.00
2022-08-23T10:58:56.754Z,51.00
2022-08-23T11:02:07.670Z,50.60
2022-08-23T11:05:24.778Z,50.50
2022-08-23T11:08:47.977Z,50.10
2022-08-23T11:12:14.241Z,49.80
2022-08-23T11:15:31.496Z,49.40
2022-08-23T11:18:43.937Z,49.30
2022-08-23T11:21:51.849Z,49.20
2022-08-23T11:25:01.727Z,49.20
2022-08-23T11:28:39.251Z,49.00
2022-08-23T11:31:51.618Z,48.50
2022-08-23T11:35:08.925Z,48.50
2022-08-23T11:38:17.224Z,48.20
2022-08-23T11:41:30.129Z,48.30
2022-08-23T11:44:43.225Z,48.00
2022-08-23T11:48:07.073Z,48.30
2022-08-23T11:51:24.264Z,47.60
2022-08-23T11:54:50.179Z,47.40
2022-08-23T11:58:07.568Z,47.30
2022-08-23T12:01:15.155Z,47.30
2022-08-23T12:04:38.919Z,47.30
2022-08-23T12:07:48.038Z,46.70
2022-08-23T12:11:10.507Z,47.50
2022-08-23T12:14:38.454Z,46.80
2022-08-23T12:18:19.242Z,46.50
2022-08-23T12:21:34.144Z,46.40
2022-08-23T12:24:47.166Z,46.60
2022-08-23T12:27:57.464Z,46.30
2022-08-23T12:31:13.508Z,46.20
2022-08-23T12:34:28.526Z,45.90
2022-08-23T12:37:43.075Z,45.70
2022-08-23T12:40:54.549Z,45.70
2022-08-23T12:44:04.383Z,45.70
2022-08-23T12:47:18.683Z,45.70
2022-08-23T12:50:32.960Z,45.50
2022-08-23T12:53:45.371Z,45.40
2022-08-23T12:56:52.536Z,45.40
2022-08-23T13:00:17.157Z,45.50
2022-08-23T13:03:25.959Z,45.30
2022-08-23T13:06:34.083Z,45.30
2022-08-23T13:09:45.462Z,45.20
2022-08-23T13:12:58.611Z,45.00
2022-08-23T13:16:07.245Z,45.20
2022-08-23T13:19:22.388Z,45.00
2022-08-23T13:22:32.279Z,44.80
2022-08-23T13:25:41.536Z,45.00
2022-08-23T13:29:07.329Z,44.90
2022-08-23T13:32:28.351Z,44.70
2022-08-23T13:35:37.562Z,44.80
2022-08-23T13:38:42.894Z,44.90
2022-08-23T13:41:50.586Z,45.00
2022-08-23T13:44:56.776Z,44.90
2022-08-23T13:48:10.168Z,44.80
2022-08-23T13:51:29.887Z,44.80
2022-08-23T13:54:36.221Z,44.70
2022-08-23T13:57:45.449Z,45.00
2022-08-23T14:00:55.735Z,44.80
2022-08-23T14:04:01.113Z,44.80
2022-08-23T14:07:06.349Z,44.90
2022-08-23T14:10:12.025Z,44.90
2022-08-23T14:13:22.986Z,44.90
2022-08-23T14:16:33.795Z,44.80
2022-08-23T14:20:31.846Z,44.80
2022-08-23T14:23:08.632Z,44.90
2022-08-23T14:26:19.499Z,45.00
2022-08-23T14:29:30.111Z,44.90
2022-08-23T14:32:35.356Z,44.70
2022-08-23T14:35:40.481Z,44.80
2022-08-23T14:38:46.301Z,44.80
2022-08-23T14:41:55.402Z,44.80
2022-08-23T14:45:03.055Z,44.90
2022-08-23T14:48:08.753Z,45.10
2022-08-23T14:51:26.022Z,45.10
2022-08-23T14:54:31.042Z,45.10
2022-08-23T14:57:36.035Z,45.20
2022-08-23T15:00:43.825Z,45.20
2022-08-23T15:03:49.143Z,45.40
2022-08-23T15:07:16.674Z,45.30
2022-08-23T15:13:55.549Z,45.40
2022-08-23T15:17:04.053Z,45.40
2022-08-23T15:20:10.123Z,45.40
2022-08-23T15:23:15.385Z,45.50
2022-08-23T15:26:26.225Z,45.40
2022-08-23T15:29:31.207Z,45.40
2022-08-23T15:32:38.852Z,45.40
2022-08-23T15:35:52.145Z,45.40
2022-08-23T15:38:57.629Z,45.50
2022-08-23T15:42:02.581Z,45.60
2022-08-23T15:45:09.329Z,45.50
2022-08-23T15:48:21.459Z,45.40
2022-08-23T15:51:27.420Z,45.30
2022-08-23T15:54:32.361Z,45.40
2022-08-23T15:57:43.840Z,45.40
2022-08-23T16:00:49.583Z,45.30
2022-08-23T16:03:57.161Z,45.40
2022-08-23T16:07:02.606Z,45.30
2022-08-23T16:10:09.246Z,45.30
2022-08-23T16:13:14.222Z,45.20
2022-08-23T16:16:22.170Z,45.20
2022-08-23T16:19:31.115Z,45.20
2022-08-23T16:22:36.153Z,45.10
2022-08-23T16:25:41.250Z,45.10
2022-08-23T16:28:47.476Z,45.20
2022-08-23T16:31:52.387Z,45.10
2022-08-23T16:35:00.125Z,45.10
2022-08-23T16:38:05.078Z,45.10
2022-08-23T16:41:10.320Z,45.20
2022-08-23T16:44:15.469Z,45.10
2022-08-23T16:47:23.242Z,45.10
2022-08-23T16:50:32.930Z,45.00
2022-08-23T16:53:38.225Z,45.00
2022-08-23T16:56:44.678Z,45.00
2022-08-23T16:59:52.915Z,45.00
2022-08-23T17:03:04.425Z,45.00
2022-08-23T17:06:13.116Z,45.10
2022-08-23T17:09:18.094Z,45.10
2022-08-23T17:12:24.249Z,45.20
2022-08-23T17:15:31.899Z,45.20
2022-08-23T17:18:36.943Z,45.20
2022-08-23T17:21:45.529Z,45.50
2022-08-23T17:24:53.316Z,45.60
2022-08-23T17:28:01.347Z,45.60
2022-08-23T17:31:06.799Z,45.70
2022-08-23T17:34:12.050Z,45.80
2022-08-23T17:37:23.926Z,45.80
2022-08-23T17:40:33.228Z,45.80
2022-08-23T17:43:42.746Z,45.70
2022-08-23T17:46:49.125Z,45.80
2022-08-23T17:49:55.267Z,45.90
2022-08-23T17:53:03.047Z,45.90
2022-08-23T17:56:12.449Z,46.20
2022-08-23T17:59:18.489Z,46.40
2022-08-23T18:02:23.617Z,46.40
2022-08-23T18:05:30.621Z,46.60
2022-08-23T18:08:38.546Z,46.80
2022-08-23T18:11:43.604Z,47.10
2022-08-23T18:14:49.179Z,47.20
2022-08-23T18:17:58.110Z,47.50
2022-08-23T18:21:07.675Z,47.60
2022-08-23T18:24:16.117Z,48.40
2022-08-23T18:27:33.775Z,48.00
2022-08-23T18:30:47.653Z,48.10
2022-08-23T18:33:53.697Z,48.20
2022-08-23T18:37:01.069Z,48.20
2022-08-23T18:40:10.425Z,48.30
2022-08-23T18:43:17.475Z,48.50
2022-08-23T18:46:23.282Z,48.60
2022-08-23T18:49:28.225Z,48.80
2022-08-23T18:52:33.159Z,48.90
2022-08-23T18:55:41.029Z,49.10
2022-08-23T18:58:46.089Z,49.10
2022-08-23T19:01:51.351Z,49.30
2022-08-23T19:04:56.479Z,49.40
2022-08-23T19:08:01.506Z,49.50
2022-08-23T19:11:09.582Z,49.80
2022-08-23T19:14:15.326Z,49.80
2022-08-23T19:17:20.333Z,49.90
2022-08-23T19:20:25.326Z,50.00
2022-08-23T19:23:30.273Z,50.20
2022-08-23T19:26:38.458Z,50.30
2022-08-23T19:29:45.836Z,50.50
2022-08-23T19:32:50.838Z,50.60
2022-08-23T19:35:57.931Z,50.70
2022-08-23T19:39:03.125Z,50.80
2022-08-23T19:42:11.925Z,50.90
2022-08-23T19:45:18.686Z,51.10
2022-08-23T19:48:24.626Z,51.10
2022-08-23T19:51:30.325Z,51.30
2022-08-23T19:54:35.989Z,51.40
2022-08-23T19:57:43.618Z,51.60
2022-08-23T20:00:48.721Z,51.70
2022-08-23T20:03:53.809Z,51.80
2022-08-23T20:07:00.306Z,51.90
2022-08-23T20:10:05.557Z,52.00
2022-08-23T20:13:13.109Z,52.00
2022-08-23T20:16:18.436Z,52.20
2022-08-23T20:19:24.113Z,52.10
2022-08-23T20:22:41.774Z,52.30
2022-08-23T20:25:50.376Z,52.30
2022-08-23T20:29:00.140Z,52.40
2022-08-23T20:32:06.815Z,52.50
2022-08-23T20:35:13.976Z,52.60
2022-08-23T20:38:33.041Z,52.70
2022-08-23T20:41:40.932Z,52.80
2022-08-23T20:44:48.534Z,52.90
2022-08-23T20:47:53.662Z,53.10
2022-08-23T20:51:00.870Z,53.10
2022-08-23T20:54:06.017Z,53.20
2022-08-23T20:57:11.118Z,53.40
2022-08-23T21:00:19.728Z,53.40
2022-08-23T21:03:24.776Z,53.60
2022-08-23T21:06:31.707Z,53.70
2022-08-23T21:09:36.679Z,53.80
2022-08-23T21:12:41.686Z,54.00
2022-08-23T21:15:49.499Z,54.00
2022-08-23T21:18:56.816Z,54.20
2022-08-23T21:22:01.884Z,54.30
2022-08-23T21:25:07.897Z,55.00
2022-08-23T21:28:13.374Z,54.60
2022-08-23T21:31:23.643Z,54.70
2022-08-23T21:34:29.005Z,54.90
2022-08-23T21:37:35.410Z,54.90
2022-08-23T21:40:40.643Z,55.10
2022-08-23T21:43:45.735Z,55.20
2022-08-23T21:46:53.326Z,55.30
2022-08-23T21:49:58.784Z,55.50
2022-08-23T21:53:04.284Z,55.50
2022-08-23T21:56:09.647Z,55.70
2022-08-23T21:59:17.203Z,55.80
2022-08-23T22:02:24.803Z,55.90
2022-08-23T22:05:30.341Z,56.10
2022-08-23T22:08:35.350Z,56.20
2022-08-23T22:11:42.490Z,56.30
2022-08-23T22:14:47.478Z,56.50
2022-08-23T22:17:55.198Z,56.50
2022-08-23T22:21:01.499Z,56.80
2022-08-23T22:24:07.272Z,56.80
2022-08-23T22:27:13.344Z,56.90
2022-08-23T22:30:19.909Z,57.00
2022-08-23T22:33:27.660Z,57.20
2022-08-23T22:36:33.488Z,57.30
2022-08-23T22:39:38.487Z,57.40
2022-08-23T22:42:43.462Z,57.50
2022-08-23T22:45:52.638Z,57.60
2022-08-23T22:49:00.326Z,57.70
2022-08-23T22:52:06.219Z,57.90
2022-08-23T22:55:11.577Z,57.90
2022-08-23T22:58:16.519Z,58.00
2022-08-23T23:01:23.885Z,58.10
2022-08-23T23:04:32.403Z,58.40
2022-08-23T23:07:49.892Z,58.40
2022-08-23T23:10:54.819Z,58.50
2022-08-23T23:14:00.913Z,58.60
2022-08-23T23:17:06.015Z,58.80
2022-08-23T23:20:27.222Z,58.80
2022-08-23T23:23:33.569Z,59.00
2022-08-23T23:26:38.622Z,59.00
2022-08-23T23:29:44.289Z,59.20
2022-08-23T23:32:49.266Z,59.20
2022-08-23T23:35:57.239Z,59.40
2022-08-23T23:39:03.052Z,59.60
2022-08-23T23:42:08.303Z,59.60
2022-08-23T23:45:14.330Z,59.70
2022-08-23T23:48:19.281Z,59.80
2022-08-23T23:51:28.841Z,59.90
2022-08-23T23:54:35.589Z,60.10
2022-08-23T23:57:41.310Z,60.00
